sensor_id;sensor_type;location;lat;lon;timestamp;P1;durP1;ratioP1;P2;durP2;ratioP2
8319;SDS011;4197;42.130;24.746;2023-04-15T00:01:09;7.20;;;4.60;;
8319;SDS011;4197;42.130;24.746;2023-04-15T00:03:38;7.67;;;5.40;;
8319;SDS011;4197;42.130;24.746;2023-04-15T00:06:07;8.47;;;5.10;;
8319;SDS011;4197;42.130;24.746;2023-04-15T00:08:35;9.33;;;4.90;;
8319;SDS011;4197;42.130;24.746;2023-04-15T00:11:04;10.30;;;5.20;;
8319;SDS011;4197;42.130;24.746;2023-04-15T00:13:33;9.17;;;6.17;;
8319;SDS011;4197;42.130;24.746;2023-04-15T00:16:01;9.17;;;5.60;;
8319;SDS011;4197;42.130;24.746;2023-04-15T00:18:29;8.57;;;5.80;;
8319;SDS011;4197;42.130;24.746;2023-04-15T00:20:57;14.47;;;6.20;;
8319;SDS011;4197;42.130;24.746;2023-04-15T00:23:26;5.40;;;4.90;;
8319;SDS011;4197;42.130;24.746;2023-04-15T00:25:54;10.03;;;5.73;;
8319;SDS011;4197;42.130;24.746;2023-04-15T00:28:24;8.97;;;5.63;;
8319;SDS011;4197;42.130;24.746;2023-04-15T00:30:53;9.50;;;6.17;;
8319;SDS011;4197;42.130;24.746;2023-04-15T00:33:21;8.03;;;5.50;;
8319;SDS011;4197;42.130;24.746;2023-04-15T00:35:49;6.40;;;4.87;;
8319;SDS011;4197;42.130;24.746;2023-04-15T00:38:17;7.20;;;5.50;;
8319;SDS011;4197;42.130;24.746;2023-04-15T00:40:45;7.67;;;5.50;;
8319;SDS011;4197;42.130;24.746;2023-04-15T00:43:13;8.40;;;5.53;;
8319;SDS011;4197;42.130;24.746;2023-04-15T00:45:43;9.67;;;6.10;;
8319;SDS011;4197;42.130;24.746;2023-04-15T00:48:12;8.33;;;6.00;;
8319;SDS011;4197;42.130;24.746;2023-04-15T00:50:40;8.83;;;5.83;;
8319;SDS011;4197;42.130;24.746;2023-04-15T00:53:09;7.73;;;5.43;;
8319;SDS011;4197;42.130;24.746;2023-04-15T00:55:37;7.40;;;5.47;;
8319;SDS011;4197;42.130;24.746;2023-04-15T00:58:06;7.17;;;5.37;;
8319;SDS011;4197;42.130;24.746;2023-04-15T01:00:34;7.80;;;5.30;;
8319;SDS011;4197;42.130;24.746;2023-04-15T01:03:05;8.03;;;5.80;;
8319;SDS011;4197;42.130;24.746;2023-04-15T01:05:33;8.97;;;5.47;;
8319;SDS011;4197;42.130;24.746;2023-04-15T01:08:03;6.97;;;5.73;;
8319;SDS011;4197;42.130;24.746;2023-04-15T01:10:32;7.67;;;6.07;;
8319;SDS011;4197;42.130;24.746;2023-04-15T01:13:01;8.53;;;5.50;;
8319;SDS011;4197;42.130;24.746;2023-04-15T01:15:29;8.83;;;5.43;;
8319;SDS011;4197;42.130;24.746;2023-04-15T01:17:59;7.30;;;5.33;;
8319;SDS011;4197;42.130;24.746;2023-04-15T01:20:29;5.93;;;5.10;;
8319;SDS011;4197;42.130;24.746;2023-04-15T01:22:57;6.90;;;5.10;;
8319;SDS011;4197;42.130;24.746;2023-04-15T01:25:28;8.97;;;5.17;;
8319;SDS011;4197;42.130;24.746;2023-04-15T01:27:58;6.90;;;4.67;;
8319;SDS011;4197;42.130;24.746;2023-04-15T01:30:27;6.33;;;4.97;;
8319;SDS011;4197;42.130;24.746;2023-04-15T01:32:56;6.60;;;4.70;;
8319;SDS011;4197;42.130;24.746;2023-04-15T01:35:24;5.50;;;4.00;;
8319;SDS011;4197;42.130;24.746;2023-04-15T01:37:53;5.77;;;3.73;;
8319;SDS011;4197;42.130;24.746;2023-04-15T01:40:25;9.90;;;4.10;;
8319;SDS011;4197;42.130;24.746;2023-04-15T01:42:55;5.80;;;3.87;;
8319;SDS011;4197;42.130;24.746;2023-04-15T01:45:23;5.27;;;3.90;;
8319;SDS011;4197;42.130;24.746;2023-04-15T01:47:51;4.87;;;3.97;;
8319;SDS011;4197;42.130;24.746;2023-04-15T01:50:19;4.60;;;3.87;;
8319;SDS011;4197;42.130;24.746;2023-04-15T01:52:48;4.97;;;3.60;;
8319;SDS011;4197;42.130;24.746;2023-04-15T01:55:16;4.50;;;3.80;;
8319;SDS011;4197;42.130;24.746;2023-04-15T01:57:44;4.70;;;3.70;;
8319;SDS011;4197;42.130;24.746;2023-04-15T02:00:14;4.07;;;3.30;;
8319;SDS011;4197;42.130;24.746;2023-04-15T02:02:43;6.27;;;3.30;;
8319;SDS011;4197;42.130;24.746;2023-04-15T02:05:11;5.73;;;3.33;;
8319;SDS011;4197;42.130;24.746;2023-04-15T02:07:41;6.57;;;3.90;;
8319;SDS011;4197;42.130;24.746;2023-04-15T02:10:09;4.17;;;3.37;;
8319;SDS011;4197;42.130;24.746;2023-04-15T02:12:38;5.53;;;3.70;;
8319;SDS011;4197;42.130;24.746;2023-04-15T02:15:07;4.53;;;3.30;;
8319;SDS011;4197;42.130;24.746;2023-04-15T02:17:38;4.67;;;3.60;;
8319;SDS011;4197;42.130;24.746;2023-04-15T02:20:07;7.07;;;3.87;;
8319;SDS011;4197;42.130;24.746;2023-04-15T02:22:36;5.10;;;3.50;;
8319;SDS011;4197;42.130;24.746;2023-04-15T02:25:04;5.53;;;3.70;;
8319;SDS011;4197;42.130;24.746;2023-04-15T02:27:34;6.80;;;4.37;;
8319;SDS011;4197;42.130;24.746;2023-04-15T02:30:03;9.30;;;3.87;;
8319;SDS011;4197;42.130;24.746;2023-04-15T02:32:32;6.43;;;3.90;;
8319;SDS011;4197;42.130;24.746;2023-04-15T02:35:05;8.27;;;4.23;;
8319;SDS011;4197;42.130;24.746;2023-04-15T02:37:35;4.30;;;3.80;;
8319;SDS011;4197;42.130;24.746;2023-04-15T02:40:09;6.67;;;3.23;;
8319;SDS011;4197;42.130;24.746;2023-04-15T02:42:38;4.70;;;3.67;;
8319;SDS011;4197;42.130;24.746;2023-04-15T02:45:07;5.90;;;3.40;;
8319;SDS011;4197;42.130;24.746;2023-04-15T02:47:35;5.50;;;3.27;;
8319;SDS011;4197;42.130;24.746;2023-04-15T02:50:09;5.70;;;3.90;;
8319;SDS011;4197;42.130;24.746;2023-04-15T02:52:39;6.63;;;3.43;;
8319;SDS011;4197;42.130;24.746;2023-04-15T02:55:08;4.07;;;3.37;;
8319;SDS011;4197;42.130;24.746;2023-04-15T02:57:36;4.60;;;3.40;;
8319;SDS011;4197;42.130;24.746;2023-04-15T03:00:06;4.53;;;3.10;;
8319;SDS011;4197;42.130;24.746;2023-04-15T03:02:37;5.30;;;3.50;;
8319;SDS011;4197;42.130;24.746;2023-04-15T03:05:10;5.03;;;3.40;;
8319;SDS011;4197;42.130;24.746;2023-04-15T03:07:39;5.73;;;3.43;;
8319;SDS011;4197;42.130;24.746;2023-04-15T03:10:07;7.00;;;3.60;;
8319;SDS011;4197;42.130;24.746;2023-04-15T03:12:36;5.27;;;3.50;;
8319;SDS011;4197;42.130;24.746;2023-04-15T03:15:05;6.20;;;3.70;;
8319;SDS011;4197;42.130;24.746;2023-04-15T03:17:35;5.30;;;3.93;;
8319;SDS011;4197;42.130;24.746;2023-04-15T03:20:03;5.33;;;3.50;;
8319;SDS011;4197;42.130;24.746;2023-04-15T03:22:34;6.23;;;3.80;;
8319;SDS011;4197;42.130;24.746;2023-04-15T03:25:02;6.03;;;3.80;;
8319;SDS011;4197;42.130;24.746;2023-04-15T03:27:31;5.23;;;3.70;;
8319;SDS011;4197;42.130;24.746;2023-04-15T03:29:59;5.10;;;3.37;;
8319;SDS011;4197;42.130;24.746;2023-04-15T03:32:27;4.20;;;3.60;;
8319;SDS011;4197;42.130;24.746;2023-04-15T03:34:55;3.97;;;3.10;;
8319;SDS011;4197;42.130;24.746;2023-04-15T03:37:23;4.93;;;4.10;;
8319;SDS011;4197;42.130;24.746;2023-04-15T03:39:53;6.27;;;3.63;;
8319;SDS011;4197;42.130;24.746;2023-04-15T03:42:21;4.27;;;3.27;;
8319;SDS011;4197;42.130;24.746;2023-04-15T03:44:49;4.10;;;3.37;;
8319;SDS011;4197;42.130;24.746;2023-04-15T03:47:17;3.60;;;2.50;;
8319;SDS011;4197;42.130;24.746;2023-04-15T03:49:45;4.00;;;3.10;;
8319;SDS011;4197;42.130;24.746;2023-04-15T03:52:14;4.97;;;2.80;;
8319;SDS011;4197;42.130;24.746;2023-04-15T03:54:42;7.17;;;2.70;;
8319;SDS011;4197;42.130;24.746;2023-04-15T03:57:11;5.90;;;3.17;;
8319;SDS011;4197;42.130;24.746;2023-04-15T03:59:39;4.57;;;2.90;;
8319;SDS011;4197;42.130;24.746;2023-04-15T04:02:08;4.03;;;3.13;;
8319;SDS011;4197;42.130;24.746;2023-04-15T04:04:36;4.17;;;3.23;;
8319;SDS011;4197;42.130;24.746;2023-04-15T04:07:04;3.37;;;2.80;;
8319;SDS011;4197;42.130;24.746;2023-04-15T04:09:32;3.67;;;2.77;;
8319;SDS011;4197;42.130;24.746;2023-04-15T04:12:01;9.70;;;3.63;;
8319;SDS011;4197;42.130;24.746;2023-04-15T04:14:31;5.27;;;3.00;;
8319;SDS011;4197;42.130;24.746;2023-04-15T04:17:00;3.90;;;2.67;;
8319;SDS011;4197;42.130;24.746;2023-04-15T04:19:30;5.53;;;2.83;;
8319;SDS011;4197;42.130;24.746;2023-04-15T04:21:58;4.47;;;2.70;;
8319;SDS011;4197;42.130;24.746;2023-04-15T04:24:27;4.83;;;2.90;;
8319;SDS011;4197;42.130;24.746;2023-04-15T04:26:55;4.10;;;2.90;;
8319;SDS011;4197;42.130;24.746;2023-04-15T04:29:23;7.17;;;3.37;;
8319;SDS011;4197;42.130;24.746;2023-04-15T04:31:53;7.00;;;3.37;;
8319;SDS011;4197;42.130;24.746;2023-04-15T04:34:22;7.70;;;4.60;;
8319;SDS011;4197;42.130;24.746;2023-04-15T04:36:50;5.30;;;3.77;;
8319;SDS011;4197;42.130;24.746;2023-04-15T04:39:18;6.37;;;3.97;;
8319;SDS011;4197;42.130;24.746;2023-04-15T04:41:46;7.67;;;3.37;;
8319;SDS011;4197;42.130;24.746;2023-04-15T04:44:14;5.47;;;3.60;;
8319;SDS011;4197;42.130;24.746;2023-04-15T04:46:43;3.60;;;2.73;;
8319;SDS011;4197;42.130;24.746;2023-04-15T04:49:13;5.30;;;3.00;;
8319;SDS011;4197;42.130;24.746;2023-04-15T04:51:42;3.80;;;3.17;;
8319;SDS011;4197;42.130;24.746;2023-04-15T04:54:12;4.30;;;3.40;;
8319;SDS011;4197;42.130;24.746;2023-04-15T04:56:41;6.00;;;3.57;;
8319;SDS011;4197;42.130;24.746;2023-04-15T04:59:09;7.27;;;3.17;;
8319;SDS011;4197;42.130;24.746;2023-04-15T05:01:38;6.37;;;3.27;;
8319;SDS011;4197;42.130;24.746;2023-04-15T05:04:10;6.13;;;3.23;;
8319;SDS011;4197;42.130;24.746;2023-04-15T05:06:39;4.47;;;2.87;;
8319;SDS011;4197;42.130;24.746;2023-04-15T05:09:08;5.43;;;3.10;;
8319;SDS011;4197;42.130;24.746;2023-04-15T05:11:36;5.43;;;3.30;;
8319;SDS011;4197;42.130;24.746;2023-04-15T05:14:04;6.00;;;3.33;;
8319;SDS011;4197;42.130;24.746;2023-04-15T05:16:32;6.10;;;3.60;;
8319;SDS011;4197;42.130;24.746;2023-04-15T05:19:01;7.43;;;4.03;;
8319;SDS011;4197;42.130;24.746;2023-04-15T05:21:30;5.93;;;3.50;;
8319;SDS011;4197;42.130;24.746;2023-04-15T05:23:59;7.57;;;4.00;;
8319;SDS011;4197;42.130;24.746;2023-04-15T05:26:28;5.13;;;3.00;;
8319;SDS011;4197;42.130;24.746;2023-04-15T05:28:56;5.97;;;4.07;;
8319;SDS011;4197;42.130;24.746;2023-04-15T05:31:25;6.07;;;3.47;;
8319;SDS011;4197;42.130;24.746;2023-04-15T05:33:54;5.43;;;3.10;;
8319;SDS011;4197;42.130;24.746;2023-04-15T05:36:22;6.13;;;3.07;;
8319;SDS011;4197;42.130;24.746;2023-04-15T05:38:51;5.17;;;2.70;;
8319;SDS011;4197;42.130;24.746;2023-04-15T05:41:21;3.77;;;2.97;;
8319;SDS011;4197;42.130;24.746;2023-04-15T05:43:49;4.03;;;3.00;;
8319;SDS011;4197;42.130;24.746;2023-04-15T05:46:17;4.53;;;2.93;;
8319;SDS011;4197;42.130;24.746;2023-04-15T05:48:46;4.60;;;3.43;;
8319;SDS011;4197;42.130;24.746;2023-04-15T05:51:14;5.50;;;3.13;;
8319;SDS011;4197;42.130;24.746;2023-04-15T05:53:42;3.20;;;2.90;;
8319;SDS011;4197;42.130;24.746;2023-04-15T05:56:11;5.93;;;2.43;;
8319;SDS011;4197;42.130;24.746;2023-04-15T05:58:41;6.23;;;3.43;;
8319;SDS011;4197;42.130;24.746;2023-04-15T06:01:09;6.53;;;3.30;;
8319;SDS011;4197;42.130;24.746;2023-04-15T06:03:38;5.23;;;2.90;;
8319;SDS011;4197;42.130;24.746;2023-04-15T06:06:06;5.60;;;2.60;;
8319;SDS011;4197;42.130;24.746;2023-04-15T06:08:35;7.73;;;3.00;;
8319;SDS011;4197;42.130;24.746;2023-04-15T06:11:03;3.93;;;3.30;;
8319;SDS011;4197;42.130;24.746;2023-04-15T06:13:32;4.70;;;3.50;;
8319;SDS011;4197;42.130;24.746;2023-04-15T06:16:02;5.03;;;2.87;;
8319;SDS011;4197;42.130;24.746;2023-04-15T06:18:31;7.90;;;2.90;;
8319;SDS011;4197;42.130;24.746;2023-04-15T06:20:59;4.43;;;2.83;;
8319;SDS011;4197;42.130;24.746;2023-04-15T06:23:28;4.80;;;3.47;;
8319;SDS011;4197;42.130;24.746;2023-04-15T06:25:56;4.03;;;3.20;;
8319;SDS011;4197;42.130;24.746;2023-04-15T06:28:24;5.57;;;2.70;;
8319;SDS011;4197;42.130;24.746;2023-04-15T06:30:52;8.10;;;3.17;;
8319;SDS011;4197;42.130;24.746;2023-04-15T06:33:22;4.77;;;2.50;;
8319;SDS011;4197;42.130;24.746;2023-04-15T06:35:50;4.60;;;2.80;;
8319;SDS011;4197;42.130;24.746;2023-04-15T06:38:19;6.10;;;2.70;;
8319;SDS011;4197;42.130;24.746;2023-04-15T06:40:47;3.20;;;2.40;;
8319;SDS011;4197;42.130;24.746;2023-04-15T06:43:15;4.47;;;2.40;;
8319;SDS011;4197;42.130;24.746;2023-04-15T06:45:44;5.83;;;2.80;;
8319;SDS011;4197;42.130;24.746;2023-04-15T06:48:12;7.43;;;3.00;;
8319;SDS011;4197;42.130;24.746;2023-04-15T06:50:42;6.53;;;3.33;;
8319;SDS011;4197;42.130;24.746;2023-04-15T06:53:10;6.90;;;3.27;;
8319;SDS011;4197;42.130;24.746;2023-04-15T06:55:38;7.57;;;2.60;;
8319;SDS011;4197;42.130;24.746;2023-04-15T06:58:07;5.07;;;3.00;;
8319;SDS011;4197;42.130;24.746;2023-04-15T07:00:35;7.43;;;3.43;;
8319;SDS011;4197;42.130;24.746;2023-04-15T07:03:04;4.60;;;2.97;;
8319;SDS011;4197;42.130;24.746;2023-04-15T07:05:35;11.83;;;4.27;;
8319;SDS011;4197;42.130;24.746;2023-04-15T07:08:05;4.30;;;3.10;;
8319;SDS011;4197;42.130;24.746;2023-04-15T07:10:34;3.20;;;2.50;;
8319;SDS011;4197;42.130;24.746;2023-04-15T07:13:02;9.43;;;4.27;;
8319;SDS011;4197;42.130;24.746;2023-04-15T07:15:34;12.20;;;4.43;;
8319;SDS011;4197;42.130;24.746;2023-04-15T07:18:02;6.40;;;3.80;;
8319;SDS011;4197;42.130;24.746;2023-04-15T07:20:30;6.13;;;3.07;;
8319;SDS011;4197;42.130;24.746;2023-04-15T07:22:59;10.50;;;3.90;;
8319;SDS011;4197;42.130;24.746;2023-04-15T07:25:28;4.87;;;2.90;;
8319;SDS011;4197;42.130;24.746;2023-04-15T07:27:56;5.83;;;2.83;;
8319;SDS011;4197;42.130;24.746;2023-04-15T07:30:25;5.90;;;2.73;;
8319;SDS011;4197;42.130;24.746;2023-04-15T07:32:53;7.27;;;3.80;;
8319;SDS011;4197;42.130;24.746;2023-04-15T07:35:22;9.67;;;3.47;;
8319;SDS011;4197;42.130;24.746;2023-04-15T07:37:51;10.57;;;3.87;;
8319;SDS011;4197;42.130;24.746;2023-04-15T07:40:20;12.40;;;6.27;;
8319;SDS011;4197;42.130;24.746;2023-04-15T07:42:50;9.03;;;4.30;;
8319;SDS011;4197;42.130;24.746;2023-04-15T07:45:18;10.70;;;4.13;;
8319;SDS011;4197;42.130;24.746;2023-04-15T07:47:47;6.82;;;3.42;;
8319;SDS011;4197;42.130;24.746;2023-04-15T07:50:16;5.87;;;3.20;;
8319;SDS011;4197;42.130;24.746;2023-04-15T07:52:45;10.33;;;4.40;;
8319;SDS011;4197;42.130;24.746;2023-04-15T07:55:14;7.43;;;4.13;;
8319;SDS011;4197;42.130;24.746;2023-04-15T07:57:45;10.02;;;4.80;;
8319;SDS011;4197;42.130;24.746;2023-04-15T08:00:15;10.00;;;4.87;;
8319;SDS011;4197;42.130;24.746;2023-04-15T08:02:43;7.40;;;3.33;;
8319;SDS011;4197;42.130;24.746;2023-04-15T08:05:14;7.50;;;3.67;;
8319;SDS011;4197;42.130;24.746;2023-04-15T08:07:42;4.78;;;3.33;;
8319;SDS011;4197;42.130;24.746;2023-04-15T08:10:10;10.50;;;4.37;;
8319;SDS011;4197;42.130;24.746;2023-04-15T08:12:39;11.38;;;4.30;;
8319;SDS011;4197;42.130;24.746;2023-04-15T08:15:07;6.47;;;4.13;;
8319;SDS011;4197;42.130;24.746;2023-04-15T08:17:37;6.90;;;3.78;;
8319;SDS011;4197;42.130;24.746;2023-04-15T08:20:06;33.22;;;5.30;;
8319;SDS011;4197;42.130;24.746;2023-04-15T08:22:35;8.65;;;3.80;;
8319;SDS011;4197;42.130;24.746;2023-04-15T08:25:03;6.30;;;3.90;;
8319;SDS011;4197;42.130;24.746;2023-04-15T08:27:32;4.97;;;3.53;;
8319;SDS011;4197;42.130;24.746;2023-04-15T08:30:00;5.35;;;3.67;;
8319;SDS011;4197;42.130;24.746;2023-04-15T08:32:30;9.13;;;3.85;;
8319;SDS011;4197;42.130;24.746;2023-04-15T08:35:00;5.07;;;3.45;;
8319;SDS011;4197;42.130;24.746;2023-04-15T08:37:28;7.07;;;3.80;;
8319;SDS011;4197;42.130;24.746;2023-04-15T08:39:56;9.40;;;3.75;;
8319;SDS011;4197;42.130;24.746;2023-04-15T08:42:26;7.55;;;3.67;;
8319;SDS011;4197;42.130;24.746;2023-04-15T08:44:58;8.38;;;3.90;;
8319;SDS011;4197;42.130;24.746;2023-04-15T08:47:28;6.18;;;4.00;;
8319;SDS011;4197;42.130;24.746;2023-04-15T08:49:59;10.93;;;4.93;;
8319;SDS011;4197;42.130;24.746;2023-04-15T08:52:31;10.13;;;3.97;;
8319;SDS011;4197;42.130;24.746;2023-04-15T08:55:00;4.78;;;3.85;;
8319;SDS011;4197;42.130;24.746;2023-04-15T08:57:30;7.65;;;3.88;;
8319;SDS011;4197;42.130;24.746;2023-04-15T09:00:00;8.10;;;4.50;;
8319;SDS011;4197;42.130;24.746;2023-04-15T09:02:31;6.70;;;3.95;;
8319;SDS011;4197;42.130;24.746;2023-04-15T09:05:01;7.78;;;3.33;;
8319;SDS011;4197;42.130;24.746;2023-04-15T09:07:33;5.45;;;3.65;;
8319;SDS011;4197;42.130;24.746;2023-04-15T09:10:02;9.05;;;4.22;;
8319;SDS011;4197;42.130;24.746;2023-04-15T09:12:32;8.75;;;4.47;;
8319;SDS011;4197;42.130;24.746;2023-04-15T09:15:01;7.35;;;2.55;;
8319;SDS011;4197;42.130;24.746;2023-04-15T09:17:31;5.57;;;3.63;;
8319;SDS011;4197;42.130;24.746;2023-04-15T09:20:08;8.10;;;3.97;;
8319;SDS011;4197;42.130;24.746;2023-04-15T09:22:38;6.28;;;3.78;;
8319;SDS011;4197;42.130;24.746;2023-04-15T09:27:55;8.90;;;3.97;;
8319;SDS011;4197;42.130;24.746;2023-04-15T09:30:24;4.68;;;3.08;;
8319;SDS011;4197;42.130;24.746;2023-04-15T09:32:55;4.70;;;3.50;;
8319;SDS011;4197;42.130;24.746;2023-04-15T09:35:26;7.38;;;4.05;;
8319;SDS011;4197;42.130;24.746;2023-04-15T09:38:01;6.53;;;3.97;;
8319;SDS011;4197;42.130;24.746;2023-04-15T09:40:31;6.55;;;4.28;;
8319;SDS011;4197;42.130;24.746;2023-04-15T09:42:59;15.13;;;4.07;;
8319;SDS011;4197;42.130;24.746;2023-04-15T09:45:28;12.60;;;3.95;;
8319;SDS011;4197;42.130;24.746;2023-04-15T09:47:57;8.73;;;3.50;;
8319;SDS011;4197;42.130;24.746;2023-04-15T09:50:27;6.80;;;3.45;;
8319;SDS011;4197;42.130;24.746;2023-04-15T09:52:56;6.53;;;3.83;;
8319;SDS011;4197;42.130;24.746;2023-04-15T09:55:25;4.50;;;3.20;;
8319;SDS011;4197;42.130;24.746;2023-04-15T09:57:53;4.60;;;3.33;;
8319;SDS011;4197;42.130;24.746;2023-04-15T10:00:21;8.48;;;3.67;;
8319;SDS011;4197;42.130;24.746;2023-04-15T10:02:49;5.50;;;2.85;;
8319;SDS011;4197;42.130;24.746;2023-04-15T10:05:19;6.88;;;2.60;;
8319;SDS011;4197;42.130;24.746;2023-04-15T10:07:50;7.03;;;3.17;;
8319;SDS011;4197;42.130;24.746;2023-04-15T10:10:18;4.07;;;2.88;;
8319;SDS011;4197;42.130;24.746;2023-04-15T10:12:50;9.77;;;2.92;;
8319;SDS011;4197;42.130;24.746;2023-04-15T10:15:21;5.43;;;2.58;;
8319;SDS011;4197;42.130;24.746;2023-04-15T10:17:50;3.60;;;2.20;;
8319;SDS011;4197;42.130;24.746;2023-04-15T10:20:21;3.85;;;2.22;;
8319;SDS011;4197;42.130;24.746;2023-04-15T10:22:52;3.38;;;2.20;;
8319;SDS011;4197;42.130;24.746;2023-04-15T10:25:21;3.80;;;2.13;;
8319;SDS011;4197;42.130;24.746;2023-04-15T10:27:50;3.17;;;2.13;;
8319;SDS011;4197;42.130;24.746;2023-04-15T10:30:18;4.50;;;2.10;;
8319;SDS011;4197;42.130;24.746;2023-04-15T10:32:47;7.63;;;2.28;;
8319;SDS011;4197;42.130;24.746;2023-04-15T10:35:16;6.75;;;2.70;;
8319;SDS011;4197;42.130;24.746;2023-04-15T10:37:46;4.68;;;2.40;;
8319;SDS011;4197;42.130;24.746;2023-04-15T10:40:26;5.00;;;2.30;;
8319;SDS011;4197;42.130;24.746;2023-04-15T10:42:57;3.33;;;2.40;;
8319;SDS011;4197;42.130;24.746;2023-04-15T10:45:27;4.63;;;2.53;;
8319;SDS011;4197;42.130;24.746;2023-04-15T10:48:00;4.45;;;2.55;;
8319;SDS011;4197;42.130;24.746;2023-04-15T10:50:30;6.47;;;2.80;;
8319;SDS011;4197;42.130;24.746;2023-04-15T10:53:02;4.70;;;3.72;;
8319;SDS011;4197;42.130;24.746;2023-04-15T10:55:33;5.63;;;3.97;;
8319;SDS011;4197;42.130;24.746;2023-04-15T10:58:05;7.65;;;4.07;;
8319;SDS011;4197;42.130;24.746;2023-04-15T11:00:33;9.35;;;4.97;;
8319;SDS011;4197;42.130;24.746;2023-04-15T11:03:05;8.63;;;5.30;;
8319;SDS011;4197;42.130;24.746;2023-04-15T11:05:48;10.38;;;4.55;;
8319;SDS011;4197;42.130;24.746;2023-04-15T11:08:18;13.27;;;4.60;;
8319;SDS011;4197;42.130;24.746;2023-04-15T11:10:51;7.45;;;5.05;;
8319;SDS011;4197;42.130;24.746;2023-04-15T11:13:23;10.85;;;5.10;;
8319;SDS011;4197;42.130;24.746;2023-04-15T11:15:58;8.32;;;5.00;;
8319;SDS011;4197;42.130;24.746;2023-04-15T11:18:29;7.95;;;4.70;;
8319;SDS011;4197;42.130;24.746;2023-04-15T11:20:59;7.07;;;4.82;;
8319;SDS011;4197;42.130;24.746;2023-04-15T11:23:31;9.65;;;5.10;;
8319;SDS011;4197;42.130;24.746;2023-04-15T11:26:03;6.60;;;4.82;;
8319;SDS011;4197;42.130;24.746;2023-04-15T11:28:35;8.23;;;5.07;;
8319;SDS011;4197;42.130;24.746;2023-04-15T11:31:05;8.50;;;4.80;;
8319;SDS011;4197;42.130;24.746;2023-04-15T11:33:36;9.02;;;5.20;;
8319;SDS011;4197;42.130;24.746;2023-04-15T11:36:06;7.10;;;4.28;;
8319;SDS011;4197;42.130;24.746;2023-04-15T11:38:38;6.63;;;4.25;;
8319;SDS011;4197;42.130;24.746;2023-04-15T11:41:10;7.95;;;4.90;;
8319;SDS011;4197;42.130;24.746;2023-04-15T11:43:39;7.43;;;4.63;;
8319;SDS011;4197;42.130;24.746;2023-04-15T11:46:07;7.55;;;4.95;;
8319;SDS011;4197;42.130;24.746;2023-04-15T11:48:35;7.85;;;5.22;;
8319;SDS011;4197;42.130;24.746;2023-04-15T11:51:04;8.23;;;4.82;;
8319;SDS011;4197;42.130;24.746;2023-04-15T11:53:37;9.05;;;4.93;;
8319;SDS011;4197;42.130;24.746;2023-04-15T11:56:07;8.05;;;5.00;;
8319;SDS011;4197;42.130;24.746;2023-04-15T11:58:38;8.60;;;5.38;;
8319;SDS011;4197;42.130;24.746;2023-04-15T12:01:07;7.53;;;4.47;;
8319;SDS011;4197;42.130;24.746;2023-04-15T12:03:36;14.45;;;5.20;;
8319;SDS011;4197;42.130;24.746;2023-04-15T12:06:14;6.57;;;3.70;;
8319;SDS011;4197;42.130;24.746;2023-04-15T12:08:48;6.38;;;3.92;;
8319;SDS011;4197;42.130;24.746;2023-04-15T12:11:29;6.78;;;3.35;;
8319;SDS011;4197;42.130;24.746;2023-04-15T12:14:10;5.80;;;2.65;;
8319;SDS011;4197;42.130;24.746;2023-04-15T12:16:40;5.15;;;3.10;;
8319;SDS011;4197;42.130;24.746;2023-04-15T12:19:15;5.82;;;2.58;;
8319;SDS011;4197;42.130;24.746;2023-04-15T12:21:52;7.55;;;3.15;;
8319;SDS011;4197;42.130;24.746;2023-04-15T12:24:23;5.57;;;2.40;;
8319;SDS011;4197;42.130;24.746;2023-04-15T12:26:52;4.75;;;2.17;;
8319;SDS011;4197;42.130;24.746;2023-04-15T12:29:25;14.65;;;3.40;;
8319;SDS011;4197;42.130;24.746;2023-04-15T12:31:55;3.20;;;2.25;;
8319;SDS011;4197;42.130;24.746;2023-04-15T12:34:25;5.18;;;2.10;;
8319;SDS011;4197;42.130;24.746;2023-04-15T12:36:55;8.20;;;2.28;;
8319;SDS011;4197;42.130;24.746;2023-04-15T12:39:25;6.30;;;2.35;;
8319;SDS011;4197;42.130;24.746;2023-04-15T12:41:56;4.85;;;2.50;;
8319;SDS011;4197;42.130;24.746;2023-04-15T12:44:26;6.93;;;2.63;;
8319;SDS011;4197;42.130;24.746;2023-04-15T12:46:55;4.82;;;2.15;;
8319;SDS011;4197;42.130;24.746;2023-04-15T12:49:23;4.50;;;2.42;;
8319;SDS011;4197;42.130;24.746;2023-04-15T12:51:52;5.80;;;2.00;;
8319;SDS011;4197;42.130;24.746;2023-04-15T12:54:22;7.90;;;2.30;;
8319;SDS011;4197;42.130;24.746;2023-04-15T12:56:50;5.35;;;2.10;;
8319;SDS011;4197;42.130;24.746;2023-04-15T12:59:19;2.90;;;2.08;;
8319;SDS011;4197;42.130;24.746;2023-04-15T13:01:50;3.05;;;2.10;;
8319;SDS011;4197;42.130;24.746;2023-04-15T13:04:20;7.05;;;2.20;;
8319;SDS011;4197;42.130;24.746;2023-04-15T13:06:48;5.18;;;1.80;;
8319;SDS011;4197;42.130;24.746;2023-04-15T13:09:16;4.57;;;1.92;;
8319;SDS011;4197;42.130;24.746;2023-04-15T13:11:45;4.90;;;2.05;;
8319;SDS011;4197;42.130;24.746;2023-04-15T13:14:13;4.25;;;1.90;;
8319;SDS011;4197;42.130;24.746;2023-04-15T13:16:43;4.38;;;2.20;;
8319;SDS011;4197;42.130;24.746;2023-04-15T13:19:13;6.05;;;2.40;;
8319;SDS011;4197;42.130;24.746;2023-04-15T13:21:41;4.88;;;2.40;;
8319;SDS011;4197;42.130;24.746;2023-04-15T13:24:09;5.07;;;2.42;;
8319;SDS011;4197;42.130;24.746;2023-04-15T13:26:38;6.50;;;2.50;;
8319;SDS011;4197;42.130;24.746;2023-04-15T13:29:06;6.80;;;2.15;;
8319;SDS011;4197;42.130;24.746;2023-04-15T13:31:34;5.47;;;1.92;;
8319;SDS011;4197;42.130;24.746;2023-04-15T13:34:02;6.50;;;1.75;;
8319;SDS011;4197;42.130;24.746;2023-04-15T13:36:33;3.70;;;1.92;;
8319;SDS011;4197;42.130;24.746;2023-04-15T13:39:01;6.97;;;2.40;;
8319;SDS011;4197;42.130;24.746;2023-04-15T13:41:30;10.68;;;3.45;;
8319;SDS011;4197;42.130;24.746;2023-04-15T13:43:59;3.33;;;2.10;;
8319;SDS011;4197;42.130;24.746;2023-04-15T13:46:27;4.13;;;1.83;;
8319;SDS011;4197;42.130;24.746;2023-04-15T13:48:56;5.65;;;1.88;;
8319;SDS011;4197;42.130;24.746;2023-04-15T13:51:24;4.63;;;1.88;;
8319;SDS011;4197;42.130;24.746;2023-04-15T13:53:53;3.80;;;1.77;;
8319;SDS011;4197;42.130;24.746;2023-04-15T13:56:23;2.47;;;1.67;;
8319;SDS011;4197;42.130;24.746;2023-04-15T13:58:52;3.80;;;1.75;;
8319;SDS011;4197;42.130;24.746;2023-04-15T14:01:20;5.97;;;2.15;;
8319;SDS011;4197;42.130;24.746;2023-04-15T14:03:48;4.93;;;2.13;;
8319;SDS011;4197;42.130;24.746;2023-04-15T14:06:16;4.85;;;1.90;;
8319;SDS011;4197;42.130;24.746;2023-04-15T14:08:45;4.43;;;1.85;;
8319;SDS011;4197;42.130;24.746;2023-04-15T14:11:14;3.22;;;1.45;;
8319;SDS011;4197;42.130;24.746;2023-04-15T14:13:42;2.92;;;1.63;;
8319;SDS011;4197;42.130;24.746;2023-04-15T14:16:12;5.10;;;2.45;;
8319;SDS011;4197;42.130;24.746;2023-04-15T14:18:41;4.78;;;1.55;;
8319;SDS011;4197;42.130;24.746;2023-04-15T14:21:11;6.90;;;2.63;;
8319;SDS011;4197;42.130;24.746;2023-04-15T14:23:40;6.95;;;2.70;;
8319;SDS011;4197;42.130;24.746;2023-04-15T14:26:08;5.45;;;2.30;;
8319;SDS011;4197;42.130;24.746;2023-04-15T14:28:38;4.53;;;2.15;;
8319;SDS011;4197;42.130;24.746;2023-04-15T14:31:10;11.88;;;2.55;;
8319;SDS011;4197;42.130;24.746;2023-04-15T14:33:39;5.82;;;2.13;;
8319;SDS011;4197;42.130;24.746;2023-04-15T14:36:08;7.57;;;2.53;;
8319;SDS011;4197;42.130;24.746;2023-04-15T14:38:36;5.03;;;1.90;;
8319;SDS011;4197;42.130;24.746;2023-04-15T14:41:06;4.43;;;2.40;;
8319;SDS011;4197;42.130;24.746;2023-04-15T14:43:36;8.80;;;2.85;;
8319;SDS011;4197;42.130;24.746;2023-04-15T14:46:05;9.27;;;3.30;;
8319;SDS011;4197;42.130;24.746;2023-04-15T14:48:34;8.82;;;2.45;;
8319;SDS011;4197;42.130;24.746;2023-04-15T14:51:03;4.82;;;2.55;;
8319;SDS011;4197;42.130;24.746;2023-04-15T14:53:31;7.13;;;2.42;;
8319;SDS011;4197;42.130;24.746;2023-04-15T14:56:00;8.13;;;2.90;;
8319;SDS011;4197;42.130;24.746;2023-04-15T14:58:28;6.55;;;2.30;;
8319;SDS011;4197;42.130;24.746;2023-04-15T15:01:00;7.65;;;2.97;;
8319;SDS011;4197;42.130;24.746;2023-04-15T15:03:29;5.28;;;2.30;;
8319;SDS011;4197;42.130;24.746;2023-04-15T15:05:58;5.00;;;2.40;;
8319;SDS011;4197;42.130;24.746;2023-04-15T15:08:26;3.95;;;2.30;;
8319;SDS011;4197;42.130;24.746;2023-04-15T15:10:55;6.85;;;1.98;;
8319;SDS011;4197;42.130;24.746;2023-04-15T15:13:23;4.22;;;2.10;;
8319;SDS011;4197;42.130;24.746;2023-04-15T15:15:51;3.55;;;1.88;;